sensor_id;sensor_type;location;lat;lon;timestamp;temperature;humidity
67942;SHT31;54731;42.600;23.476;2023-04-15T00:01:23;6.72;61.50
67942;SHT31;54731;42.600;23.476;2023-04-15T00:03:50;6.75;60.86
67942;SHT31;54731;42.600;23.476;2023-04-15T00:06:16;6.73;61.03
67942;SHT31;54731;42.600;23.476;2023-04-15T00:08:41;6.73;61.00
67942;SHT31;54731;42.600;23.476;2023-04-15T00:11:06;6.78;62.28
67942;SHT31;54731;42.600;23.476;2023-04-15T00:13:32;6.71;63.35
67942;SHT31;54731;42.600;23.476;2023-04-15T00:15:57;6.72;64.58
67942;SHT31;54731;42.600;23.476;2023-04-15T00:18:23;6.69;64.85
67942;SHT31;54731;42.600;23.476;2023-04-15T00:20:48;6.65;65.80
67942;SHT31;54731;42.600;23.476;2023-04-15T00:23:14;6.58;67.14
67942;SHT31;54731;42.600;23.476;2023-04-15T00:25:39;6.53;67.87
67942;SHT31;54731;42.600;23.476;2023-04-15T00:28:05;6.53;68.27
67942;SHT31;54731;42.600;23.476;2023-04-15T00:30:30;6.53;67.49
67942;SHT31;54731;42.600;23.476;2023-04-15T00:32:55;6.56;67.16
67942;SHT31;54731;42.600;23.476;2023-04-15T00:35:20;6.64;67.09
67942;SHT31;54731;42.600;23.476;2023-04-15T00:37:46;6.67;67.48
67942;SHT31;54731;42.600;23.476;2023-04-15T00:40:12;6.62;67.72
67942;SHT31;54731;42.600;23.476;2023-04-15T00:42:38;6.64;68.19
67942;SHT31;54731;42.600;23.476;2023-04-15T00:45:03;6.61;67.82
67942;SHT31;54731;42.600;23.476;2023-04-15T00:47:29;6.65;64.03
67942;SHT31;54731;42.600;23.476;2023-04-15T00:49:55;6.62;63.61
67942;SHT31;54731;42.600;23.476;2023-04-15T00:52:21;6.64;62.61
67942;SHT31;54731;42.600;23.476;2023-04-15T00:54:46;6.59;62.53
67942;SHT31;54731;42.600;23.476;2023-04-15T00:57:11;6.61;63.96
67942;SHT31;54731;42.600;23.476;2023-04-15T00:59:37;6.58;63.14
67942;SHT31;54731;42.600;23.476;2023-04-15T01:02:02;6.53;63.41
67942;SHT31;54731;42.600;23.476;2023-04-15T01:04:27;6.62;63.32
67942;SHT31;54731;42.600;23.476;2023-04-15T01:06:53;6.71;62.73
67942;SHT31;54731;42.600;23.476;2023-04-15T01:09:18;6.72;63.90
67942;SHT31;54731;42.600;23.476;2023-04-15T01:11:43;6.75;65.01
67942;SHT31;54731;42.600;23.476;2023-04-15T01:14:09;6.73;65.58
67942;SHT31;54731;42.600;23.476;2023-04-15T01:16:36;6.75;66.36
67942;SHT31;54731;42.600;23.476;2023-04-15T01:19:02;6.67;67.77
67942;SHT31;54731;42.600;23.476;2023-04-15T01:21:27;6.58;68.62
67942;SHT31;54731;42.600;23.476;2023-04-15T01:23:54;6.56;67.86
67942;SHT31;54731;42.600;23.476;2023-04-15T01:26:20;6.51;67.22
67942;SHT31;54731;42.600;23.476;2023-04-15T01:28:46;6.48;67.77
67942;SHT31;54731;42.600;23.476;2023-04-15T01:31:12;6.38;67.52
67942;SHT31;54731;42.600;23.476;2023-04-15T01:33:42;6.35;66.97
67942;SHT31;54731;42.600;23.476;2023-04-15T01:36:08;6.31;66.86
67942;SHT31;54731;42.600;23.476;2023-04-15T01:38:37;6.37;66.09
67942;SHT31;54731;42.600;23.476;2023-04-15T01:41:02;6.38;65.58
67942;SHT31;54731;42.600;23.476;2023-04-15T01:43:28;6.38;65.26
67942;SHT31;54731;42.600;23.476;2023-04-15T01:45:53;6.41;65.25
67942;SHT31;54731;42.600;23.476;2023-04-15T01:48:18;6.35;65.42
67942;SHT31;54731;42.600;23.476;2023-04-15T01:50:44;6.42;65.06
67942;SHT31;54731;42.600;23.476;2023-04-15T01:53:09;6.38;66.02
67942;SHT31;54731;42.600;23.476;2023-04-15T01:55:34;6.31;67.23
67942;SHT31;54731;42.600;23.476;2023-04-15T01:58:00;6.31;68.89
67942;SHT31;54731;42.600;23.476;2023-04-15T02:00:25;6.30;69.92
67942;SHT31;54731;42.600;23.476;2023-04-15T02:02:50;6.22;70.73
67942;SHT31;54731;42.600;23.476;2023-04-15T02:05:16;6.27;71.62
67942;SHT31;54731;42.600;23.476;2023-04-15T02:07:42;6.22;73.25
67942;SHT31;54731;42.600;23.476;2023-04-15T02:10:07;6.25;74.18
67942;SHT31;54731;42.600;23.476;2023-04-15T02:12:33;6.28;75.11
67942;SHT31;54731;42.600;23.476;2023-04-15T02:14:58;6.38;75.44
67942;SHT31;54731;42.600;23.476;2023-04-15T02:17:23;6.53;75.77
67942;SHT31;54731;42.600;23.476;2023-04-15T02:19:49;6.64;75.98
67942;SHT31;54731;42.600;23.476;2023-04-15T02:22:14;6.71;76.09
67942;SHT31;54731;42.600;23.476;2023-04-15T02:24:39;6.86;76.04
67942;SHT31;54731;42.600;23.476;2023-04-15T02:27:04;6.95;76.05
67942;SHT31;54731;42.600;23.476;2023-04-15T02:29:30;7.00;75.99
67942;SHT31;54731;42.600;23.476;2023-04-15T02:31:56;7.06;75.95
67942;SHT31;54731;42.600;23.476;2023-04-15T02:34:21;7.05;75.88
67942;SHT31;54731;42.600;23.476;2023-04-15T02:36:46;7.07;75.68
67942;SHT31;54731;42.600;23.476;2023-04-15T02:39:11;6.85;72.12
67942;SHT31;54731;42.600;23.476;2023-04-15T02:41:37;6.71;70.36
67942;SHT31;54731;42.600;23.476;2023-04-15T02:44:02;6.69;70.89
67942;SHT31;54731;42.600;23.476;2023-04-15T02:46:27;6.67;70.42
67942;SHT31;54731;42.600;23.476;2023-04-15T02:48:53;6.58;70.68
67942;SHT31;54731;42.600;23.476;2023-04-15T02:51:19;6.45;71.38
67942;SHT31;54731;42.600;23.476;2023-04-15T02:53:46;6.46;73.59
67942;SHT31;54731;42.600;23.476;2023-04-15T02:56:12;6.59;74.84
67942;SHT31;54731;42.600;23.476;2023-04-15T02:58:39;6.67;74.68
67942;SHT31;54731;42.600;23.476;2023-04-15T03:01:04;6.71;74.72
67942;SHT31;54731;42.600;23.476;2023-04-15T03:03:29;6.79;74.38
67942;SHT31;54731;42.600;23.476;2023-04-15T03:05:55;6.82;74.08
67942;SHT31;54731;42.600;23.476;2023-04-15T03:08:20;6.83;73.88
67942;SHT31;54731;42.600;23.476;2023-04-15T03:10:46;6.89;73.58
67942;SHT31;54731;42.600;23.476;2023-04-15T03:13:11;6.93;73.44
67942;SHT31;54731;42.600;23.476;2023-04-15T03:15:36;6.93;73.46
67942;SHT31;54731;42.600;23.476;2023-04-15T03:18:02;7.06;73.18
67942;SHT31;54731;42.600;23.476;2023-04-15T03:20:27;7.06;70.16
67942;SHT31;54731;42.600;23.476;2023-04-15T03:22:52;6.92;69.18
67942;SHT31;54731;42.600;23.476;2023-04-15T03:25:18;6.72;67.99
67942;SHT31;54731;42.600;23.476;2023-04-15T03:27:43;6.52;67.25
67942;SHT31;54731;42.600;23.476;2023-04-15T03:30:09;6.31;66.67
67942;SHT31;54731;42.600;23.476;2023-04-15T03:32:34;6.21;66.59
67942;SHT31;54731;42.600;23.476;2023-04-15T03:34:59;6.16;65.60
67942;SHT31;54731;42.600;23.476;2023-04-15T03:37:25;6.16;65.11
67942;SHT31;54731;42.600;23.476;2023-04-15T03:39:50;6.16;65.81
67942;SHT31;54731;42.600;23.476;2023-04-15T03:42:15;6.17;64.93
67942;SHT31;54731;42.600;23.476;2023-04-15T03:44:41;6.14;65.07
67942;SHT31;54731;42.600;23.476;2023-04-15T03:47:06;6.10;65.42
67942;SHT31;54731;42.600;23.476;2023-04-15T03:49:31;6.03;66.13
67942;SHT31;54731;42.600;23.476;2023-04-15T03:51:57;6.01;66.86
67942;SHT31;54731;42.600;23.476;2023-04-15T03:54:22;6.03;66.73
67942;SHT31;54731;42.600;23.476;2023-04-15T03:56:47;5.97;66.78
67942;SHT31;54731;42.600;23.476;2023-04-15T03:59:12;5.85;67.46
67942;SHT31;54731;42.600;23.476;2023-04-15T04:01:38;5.89;67.51
67942;SHT31;54731;42.600;23.476;2023-04-15T04:04:03;5.81;68.66
67942;SHT31;54731;42.600;23.476;2023-04-15T04:06:28;5.81;68.98
67942;SHT31;54731;42.600;23.476;2023-04-15T04:08:54;5.91;68.48
67942;SHT31;54731;42.600;23.476;2023-04-15T04:11:19;6.01;69.61
67942;SHT31;54731;42.600;23.476;2023-04-15T04:13:44;6.06;70.80
67942;SHT31;54731;42.600;23.476;2023-04-15T04:16:10;6.11;70.37
67942;SHT31;54731;42.600;23.476;2023-04-15T04:18:35;6.07;69.97
67942;SHT31;54731;42.600;23.476;2023-04-15T04:21:00;5.96;68.88
67942;SHT31;54731;42.600;23.476;2023-04-15T04:23:26;6.01;68.30
67942;SHT31;54731;42.600;23.476;2023-04-15T04:25:51;6.01;68.25
67942;SHT31;54731;42.600;23.476;2023-04-15T04:28:16;6.01;68.27
67942;SHT31;54731;42.600;23.476;2023-04-15T04:30:42;6.04;68.29
67942;SHT31;54731;42.600;23.476;2023-04-15T04:33:07;6.06;68.60
67942;SHT31;54731;42.600;23.476;2023-04-15T04:35:32;6.14;68.97
67942;SHT31;54731;42.600;23.476;2023-04-15T04:37:57;6.10;69.74
67942;SHT31;54731;42.600;23.476;2023-04-15T04:40:23;6.07;70.32
67942;SHT31;54731;42.600;23.476;2023-04-15T04:42:48;6.14;70.32
67942;SHT31;54731;42.600;23.476;2023-04-15T04:45:13;6.18;70.61
67942;SHT31;54731;42.600;23.476;2023-04-15T04:47:39;6.17;71.90
67942;SHT31;54731;42.600;23.476;2023-04-15T04:50:04;6.16;72.33
67942;SHT31;54731;42.600;23.476;2023-04-15T04:52:30;6.24;72.20
67942;SHT31;54731;42.600;23.476;2023-04-15T04:54:55;6.32;72.45
67942;SHT31;54731;42.600;23.476;2023-04-15T04:57:21;6.35;72.79
67942;SHT31;54731;42.600;23.476;2023-04-15T04:59:46;6.44;72.29
67942;SHT31;54731;42.600;23.476;2023-04-15T05:02:11;6.48;72.21
67942;SHT31;54731;42.600;23.476;2023-04-15T05:04:36;6.55;72.54
67942;SHT31;54731;42.600;23.476;2023-04-15T05:07:02;6.67;71.73
67942;SHT31;54731;42.600;23.476;2023-04-15T05:09:27;6.65;72.10
67942;SHT31;54731;42.600;23.476;2023-04-15T05:11:52;6.71;72.18
67942;SHT31;54731;42.600;23.476;2023-04-15T05:14:18;6.71;72.42
67942;SHT31;54731;42.600;23.476;2023-04-15T05:16:43;6.76;72.41
67942;SHT31;54731;42.600;23.476;2023-04-15T05:19:08;6.85;72.73
67942;SHT31;54731;42.600;23.476;2023-04-15T05:21:34;6.91;72.65
67942;SHT31;54731;42.600;23.476;2023-04-15T05:23:59;6.91;73.79
67942;SHT31;54731;42.600;23.476;2023-04-15T05:26:24;6.76;74.46
67942;SHT31;54731;42.600;23.476;2023-04-15T05:28:49;6.81;74.41
67942;SHT31;54731;42.600;23.476;2023-04-15T05:31:15;6.78;75.08
67942;SHT31;54731;42.600;23.476;2023-04-15T05:33:40;6.69;74.95
67942;SHT31;54731;42.600;23.476;2023-04-15T05:36:06;6.44;75.47
67942;SHT31;54731;42.600;23.476;2023-04-15T05:38:31;6.35;75.45
67942;SHT31;54731;42.600;23.476;2023-04-15T05:59:52;7.50;72.23
67942;SHT31;54731;42.600;23.476;2023-04-15T06:02:17;7.60;70.71
67942;SHT31;54731;42.600;23.476;2023-04-15T06:04:43;7.71;68.24
67942;SHT31;54731;42.600;23.476;2023-04-15T06:07:08;7.74;66.85
67942;SHT31;54731;42.600;23.476;2023-04-15T06:09:33;7.80;66.88
67942;SHT31;54731;42.600;23.476;2023-04-15T06:11:59;7.85;66.58
67942;SHT31;54731;42.600;23.476;2023-04-15T06:14:24;7.97;66.46
67942;SHT31;54731;42.600;23.476;2023-04-15T06:16:49;8.08;66.84
67942;SHT31;54731;42.600;23.476;2023-04-15T06:19:15;8.15;66.87
67942;SHT31;54731;42.600;23.476;2023-04-15T06:21:40;8.25;66.13
67942;SHT31;54731;42.600;23.476;2023-04-15T06:24:05;8.36;65.22
67942;SHT31;54731;42.600;23.476;2023-04-15T06:26:31;8.41;66.12
67942;SHT31;54731;42.600;23.476;2023-04-15T06:28:56;8.45;66.98
67942;SHT31;54731;42.600;23.476;2023-04-15T06:31:21;8.49;67.15
67942;SHT31;54731;42.600;23.476;2023-04-15T06:33:47;8.48;65.04
67942;SHT31;54731;42.600;23.476;2023-04-15T06:36:12;8.53;65.09
67942;SHT31;54731;42.600;23.476;2023-04-15T06:38:38;8.66;62.54
67942;SHT31;54731;42.600;23.476;2023-04-15T06:41:03;8.66;63.09
67942;SHT31;54731;42.600;23.476;2023-04-15T06:43:29;8.62;64.25
67942;SHT31;54731;42.600;23.476;2023-04-15T06:45:54;8.69;64.36
67942;SHT31;54731;42.600;23.476;2023-04-15T06:48:20;8.76;65.00
67942;SHT31;54731;42.600;23.476;2023-04-15T06:50:45;8.77;63.81
67942;SHT31;54731;42.600;23.476;2023-04-15T06:53:10;8.84;64.41
67942;SHT31;54731;42.600;23.476;2023-04-15T06:55:35;8.87;64.79
67942;SHT31;54731;42.600;23.476;2023-04-15T06:58:01;8.96;64.30
67942;SHT31;54731;42.600;23.476;2023-04-15T07:00:26;9.08;65.73
67942;SHT31;54731;42.600;23.476;2023-04-15T07:02:51;9.16;64.95
67942;SHT31;54731;42.600;23.476;2023-04-15T07:05:17;9.14;64.56
67942;SHT31;54731;42.600;23.476;2023-04-15T07:07:42;9.17;64.52
67942;SHT31;54731;42.600;23.476;2023-04-15T07:10:08;9.34;64.07
67942;SHT31;54731;42.600;23.476;2023-04-15T07:12:33;9.37;64.11
67942;SHT31;54731;42.600;23.476;2023-04-15T07:14:58;9.44;65.51
67942;SHT31;54731;42.600;23.476;2023-04-15T07:17:24;9.49;65.13
67942;SHT31;54731;42.600;23.476;2023-04-15T07:19:49;9.55;64.61
67942;SHT31;54731;42.600;23.476;2023-04-15T07:22:14;9.68;64.75
67942;SHT31;54731;42.600;23.476;2023-04-15T07:24:39;9.59;63.50
67942;SHT31;54731;42.600;23.476;2023-04-15T07:27:05;9.45;63.87
67942;SHT31;54731;42.600;23.476;2023-04-15T07:29:30;9.45;64.14
67942;SHT31;54731;42.600;23.476;2023-04-15T07:31:55;9.57;64.24
67942;SHT31;54731;42.600;23.476;2023-04-15T07:34:21;9.68;63.81
67942;SHT31;54731;42.600;23.476;2023-04-15T07:36:46;9.79;64.03
67942;SHT31;54731;42.600;23.476;2023-04-15T07:39:12;9.79;63.00
67942;SHT31;54731;42.600;23.476;2023-04-15T07:41:37;9.88;64.07
67942;SHT31;54731;42.600;23.476;2023-04-15T07:44:02;9.98;63.40
67942;SHT31;54731;42.600;23.476;2023-04-15T07:46:28;10.10;63.75
67942;SHT31;54731;42.600;23.476;2023-04-15T07:48:53;10.29;62.47
67942;SHT31;54731;42.600;23.476;2023-04-15T07:51:21;10.26;62.39
67942;SHT31;54731;42.600;23.476;2023-04-15T07:53:48;10.42;62.11
67942;SHT31;54731;42.600;23.476;2023-04-15T07:56:14;10.59;62.25
67942;SHT31;54731;42.600;23.476;2023-04-15T07:58:39;10.61;60.69
67942;SHT31;54731;42.600;23.476;2023-04-15T08:01:04;10.64;61.27
67942;SHT31;54731;42.600;23.476;2023-04-15T08:03:30;10.71;60.85
67942;SHT31;54731;42.600;23.476;2023-04-15T08:05:55;10.73;60.22
67942;SHT31;54731;42.600;23.476;2023-04-15T08:08:20;10.84;60.98
67942;SHT31;54731;42.600;23.476;2023-04-15T08:10:45;10.95;60.92
67942;SHT31;54731;42.600;23.476;2023-04-15T08:13:11;10.95;61.40
67942;SHT31;54731;42.600;23.476;2023-04-15T08:15:36;11.12;60.87
67942;SHT31;54731;42.600;23.476;2023-04-15T08:18:01;11.21;60.12
67942;SHT31;54731;42.600;23.476;2023-04-15T08:20:27;11.24;59.60
67942;SHT31;54731;42.600;23.476;2023-04-15T08:22:52;11.32;59.61
67942;SHT31;54731;42.600;23.476;2023-04-15T08:25:17;11.45;59.72
67942;SHT31;54731;42.600;23.476;2023-04-15T08:27:43;11.52;59.51
67942;SHT31;54731;42.600;23.476;2023-04-15T08:30:08;11.62;58.48
67942;SHT31;54731;42.600;23.476;2023-04-15T08:32:34;11.75;58.69
67942;SHT31;54731;42.600;23.476;2023-04-15T08:34:59;11.85;57.49
67942;SHT31;54731;42.600;23.476;2023-04-15T08:37:24;11.93;57.85
67942;SHT31;54731;42.600;23.476;2023-04-15T08:39:53;11.89;55.90
67942;SHT31;54731;42.600;23.476;2023-04-15T08:42:22;11.90;56.48
67942;SHT31;54731;42.600;23.476;2023-04-15T08:44:55;12.10;56.77
67942;SHT31;54731;42.600;23.476;2023-04-15T08:47:22;12.31;54.06
67942;SHT31;54731;42.600;23.476;2023-04-15T08:49:52;12.51;54.86
67942;SHT31;54731;42.600;23.476;2023-04-15T08:52:19;12.81;55.63
67942;SHT31;54731;42.600;23.476;2023-04-15T08:54:45;12.92;53.63
67942;SHT31;54731;42.600;23.476;2023-04-15T08:57:12;12.73;52.03
67942;SHT31;54731;42.600;23.476;2023-04-15T08:59:38;12.96;52.67
67942;SHT31;54731;42.600;23.476;2023-04-15T09:02:06;13.20;51.78
67942;SHT31;54731;42.600;23.476;2023-04-15T09:04:32;13.15;50.51
67942;SHT31;54731;42.600;23.476;2023-04-15T09:06:58;12.91;50.21
67942;SHT31;54731;42.600;23.476;2023-04-15T09:09:23;12.80;51.16
67942;SHT31;54731;42.600;23.476;2023-04-15T09:11:51;12.84;52.09
67942;SHT31;54731;42.600;23.476;2023-04-15T09:14:16;13.15;51.43
67942;SHT31;54731;42.600;23.476;2023-04-15T09:17:01;13.23;51.47
67942;SHT31;54731;42.600;23.476;2023-04-15T09:19:27;13.38;49.10
67942;SHT31;54731;42.600;23.476;2023-04-15T09:21:54;13.53;49.47
67942;SHT31;54731;42.600;23.476;2023-04-15T09:24:20;13.36;49.02
67942;SHT31;54731;42.600;23.476;2023-04-15T09:26:46;13.42;49.43
67942;SHT31;54731;42.600;23.476;2023-04-15T09:29:11;13.30;48.57
67942;SHT31;54731;42.600;23.476;2023-04-15T09:31:37;13.16;49.33
67942;SHT31;54731;42.600;23.476;2023-04-15T09:34:02;13.32;52.16
67942;SHT31;54731;42.600;23.476;2023-04-15T09:36:52;13.45;50.60
67942;SHT31;54731;42.600;23.476;2023-04-15T09:39:17;13.56;49.14
67942;SHT31;54731;42.600;23.476;2023-04-15T09:41:45;13.89;52.53
67942;SHT31;54731;42.600;23.476;2023-04-15T09:44:23;14.03;49.54
67942;SHT31;54731;42.600;23.476;2023-04-15T09:46:49;14.18;48.53
67942;SHT31;54731;42.600;23.476;2023-04-15T09:49:17;14.37;48.81
67942;SHT31;54731;42.600;23.476;2023-04-15T09:51:42;14.67;47.39
67942;SHT31;54731;42.600;23.476;2023-04-15T09:54:08;14.99;46.90
67942;SHT31;54731;42.600;23.476;2023-04-15T09:56:35;15.39;47.11
67942;SHT31;54731;42.600;23.476;2023-04-15T09:59:00;15.76;46.33
67942;SHT31;54731;42.600;23.476;2023-04-15T10:01:25;15.98;46.53
67942;SHT31;54731;42.600;23.476;2023-04-15T10:03:52;16.20;44.51
67942;SHT31;54731;42.600;23.476;2023-04-15T10:06:18;16.10;44.50
67942;SHT31;54731;42.600;23.476;2023-04-15T10:08:45;16.26;43.38
67942;SHT31;54731;42.600;23.476;2023-04-15T10:11:11;16.38;42.82
67942;SHT31;54731;42.600;23.476;2023-04-15T10:13:37;16.40;43.36
67942;SHT31;54731;42.600;23.476;2023-04-15T10:18:31;16.11;41.45
67942;SHT31;54731;42.600;23.476;2023-04-15T10:20:59;16.32;42.21
67942;SHT31;54731;42.600;23.476;2023-04-15T10:23:25;16.49;40.53
67942;SHT31;54731;42.600;23.476;2023-04-15T10:25:51;16.65;41.74
67942;SHT31;54731;42.600;23.476;2023-04-15T10:28:18;16.83;40.91
67942;SHT31;54731;42.600;23.476;2023-04-15T10:30:45;17.16;41.41
67942;SHT31;54731;42.600;23.476;2023-04-15T10:33:11;17.37;39.79
67942;SHT31;54731;42.600;23.476;2023-04-15T10:35:37;17.28;38.41
67942;SHT31;54731;42.600;23.476;2023-04-15T10:43:49;17.09;38.89
67942;SHT31;54731;42.600;23.476;2023-04-15T10:46:22;16.96;38.93
67942;SHT31;54731;42.600;23.476;2023-04-15T10:48:49;17.00;38.92
67942;SHT31;54731;42.600;23.476;2023-04-15T10:51:17;17.20;39.10
67942;SHT31;54731;42.600;23.476;2023-04-15T10:53:50;17.02;39.31
67942;SHT31;54731;42.600;23.476;2023-04-15T10:56:20;16.63;39.20
67942;SHT31;54731;42.600;23.476;2023-04-15T10:58:45;16.61;39.63
67942;SHT31;54731;42.600;23.476;2023-04-15T11:01:11;16.69;39.78
67942;SHT31;54731;42.600;23.476;2023-04-15T11:03:39;16.69;39.30
67942;SHT31;54731;42.600;23.476;2023-04-15T11:06:05;16.61;40.03
67942;SHT31;54731;42.600;23.476;2023-04-15T11:11:18;16.61;38.59
67942;SHT31;54731;42.600;23.476;2023-04-15T11:13:47;16.96;39.63
67942;SHT31;54731;42.600;23.476;2023-04-15T11:16:13;17.12;38.34
67942;SHT31;54731;42.600;23.476;2023-04-15T11:18:38;17.07;38.69
67942;SHT31;54731;42.600;23.476;2023-04-15T11:21:05;17.07;38.97
67942;SHT31;54731;42.600;23.476;2023-04-15T11:23:38;17.20;38.60
67942;SHT31;54731;42.600;23.476;2023-04-15T11:26:06;17.33;38.77
67942;SHT31;54731;42.600;23.476;2023-04-15T11:28:32;17.44;37.41
67942;SHT31;54731;42.600;23.476;2023-04-15T11:31:02;17.61;36.52
67942;SHT31;54731;42.600;23.476;2023-04-15T11:33:29;17.73;37.82
67942;SHT31;54731;42.600;23.476;2023-04-15T11:35:54;18.12;37.28
67942;SHT31;54731;42.600;23.476;2023-04-15T11:38:20;18.42;37.07
67942;SHT31;54731;42.600;23.476;2023-04-15T11:40:45;18.24;35.00
67942;SHT31;54731;42.600;23.476;2023-04-15T11:43:18;17.37;36.15
67942;SHT31;54731;42.600;23.476;2023-04-15T11:45:50;17.24;37.10
67942;SHT31;54731;42.600;23.476;2023-04-15T11:48:16;17.63;38.97
67942;SHT31;54731;42.600;23.476;2023-04-15T11:50:41;17.98;35.67
67942;SHT31;54731;42.600;23.476;2023-04-15T11:53:11;17.94;35.75
67942;SHT31;54731;42.600;23.476;2023-04-15T11:58:17;18.77;35.38
67942;SHT31;54731;42.600;23.476;2023-04-15T12:00:59;18.94;34.65
67942;SHT31;54731;42.600;23.476;2023-04-15T12:11:50;19.44;33.94
67942;SHT31;54731;42.600;23.476;2023-04-15T12:14:28;19.43;33.07
67942;SHT31;54731;42.600;23.476;2023-04-15T12:19:24;19.30;34.06
67942;SHT31;54731;42.600;23.476;2023-04-15T12:21:50;19.47;33.33
67942;SHT31;54731;42.600;23.476;2023-04-15T12:24:20;19.59;34.52
67942;SHT31;54731;42.600;23.476;2023-04-15T12:29:13;19.41;32.33
67942;SHT31;54731;42.600;23.476;2023-04-15T12:31:53;19.64;32.88
67942;SHT31;54731;42.600;23.476;2023-04-15T12:34:29;19.35;32.80
67942;SHT31;54731;42.600;23.476;2023-04-15T12:36:56;19.89;34.50
67942;SHT31;54731;42.600;23.476;2023-04-15T12:39:26;20.06;32.74
67942;SHT31;54731;42.600;23.476;2023-04-15T12:41:52;20.40;32.08
67942;SHT31;54731;42.600;23.476;2023-04-15T12:44:17;20.30;31.14
67942;SHT31;54731;42.600;23.476;2023-04-15T12:46:44;20.10;30.73
67942;SHT31;54731;42.600;23.476;2023-04-15T12:49:10;20.23;31.34
67942;SHT31;54731;42.600;23.476;2023-04-15T12:51:35;19.75;31.58
67942;SHT31;54731;42.600;23.476;2023-04-15T12:54:00;19.23;32.48
67942;SHT31;54731;42.600;23.476;2023-04-15T12:56:26;19.65;31.86
67942;SHT31;54731;42.600;23.476;2023-04-15T12:58:51;19.68;31.51
67942;SHT31;54731;42.600;23.476;2023-04-15T13:01:17;19.71;31.75
67942;SHT31;54731;42.600;23.476;2023-04-15T13:03:42;19.93;31.38
67942;SHT31;54731;42.600;23.476;2023-04-15T13:06:07;19.85;32.24
67942;SHT31;54731;42.600;23.476;2023-04-15T13:08:33;20.15;31.59
67942;SHT31;54731;42.600;23.476;2023-04-15T13:10:58;20.44;30.80
67942;SHT31;54731;42.600;23.476;2023-04-15T13:13:24;19.72;31.13
67942;SHT31;54731;42.600;23.476;2023-04-15T13:15:49;19.41;30.93
67942;SHT31;54731;42.600;23.476;2023-04-15T13:18:14;20.02;30.90
67942;SHT31;54731;42.600;23.476;2023-04-15T13:20:40;20.46;32.26
67942;SHT31;54731;42.600;23.476;2023-04-15T13:23:05;20.97;32.43
67942;SHT31;54731;42.600;23.476;2023-04-15T13:25:30;21.27;30.51
67942;SHT31;54731;42.600;23.476;2023-04-15T13:27:55;21.35;31.54
67942;SHT31;54731;42.600;23.476;2023-04-15T13:30:21;21.61;30.76
67942;SHT31;54731;42.600;23.476;2023-04-15T13:32:46;21.76;29.10
67942;SHT31;54731;42.600;23.476;2023-04-15T13:35:11;21.85;29.27
67942;SHT31;54731;42.600;23.476;2023-04-15T13:37:37;22.08;29.80
67942;SHT31;54731;42.600;23.476;2023-04-15T13:40:02;22.13;28.44
67942;SHT31;54731;42.600;23.476;2023-04-15T13:42:27;22.20;28.75
67942;SHT31;54731;42.600;23.476;2023-04-15T13:44:53;22.16;28.66
67942;SHT31;54731;42.600;23.476;2023-04-15T13:47:18;22.13;29.37
67942;SHT31;54731;42.600;23.476;2023-04-15T13:49:44;22.14;29.90
67942;SHT31;54731;42.600;23.476;2023-04-15T13:52:10;21.76;30.23
67942;SHT31;54731;42.600;23.476;2023-04-15T13:54:35;22.10;29.52
67942;SHT31;54731;42.600;23.476;2023-04-15T13:57:01;22.26;29.44
67942;SHT31;54731;42.600;23.476;2023-04-15T13:59:26;22.57;29.31
67942;SHT31;54731;42.600;23.476;2023-04-15T14:01:51;22.74;27.65
67942;SHT31;54731;42.600;23.476;2023-04-15T14:04:17;22.68;27.85
67942;SHT31;54731;42.600;23.476;2023-04-15T14:06:42;22.57;27.95
67942;SHT31;54731;42.600;23.476;2023-04-15T14:09:08;22.26;28.18
67942;SHT31;54731;42.600;23.476;2023-04-15T14:11:34;22.50;28.39
67942;SHT31;54731;42.600;23.476;2023-04-15T14:13:59;22.49;27.90
67942;SHT31;54731;42.600;23.476;2023-04-15T14:16:24;22.39;28.55
67942;SHT31;54731;42.600;23.476;2023-04-15T14:18:50;22.08;27.57
67942;SHT31;54731;42.600;23.476;2023-04-15T14:21:15;21.98;28.45
67942;SHT31;54731;42.600;23.476;2023-04-15T14:23:40;22.14;28.66
67942;SHT31;54731;42.600;23.476;2023-04-15T14:26:06;22.22;28.12
67942;SHT31;54731;42.600;23.476;2023-04-15T14:28:32;22.32;28.02
67942;SHT31;54731;42.600;23.476;2023-04-15T14:30:57;22.29;27.87
67942;SHT31;54731;42.600;23.476;2023-04-15T14:33:22;22.44;29.08
67942;SHT31;54731;42.600;23.476;2023-04-15T14:35:48;22.65;28.64
67942;SHT31;54731;42.600;23.476;2023-04-15T14:38:15;22.13;26.73
67942;SHT31;54731;42.600;23.476;2023-04-15T14:40:40;21.49;27.88
67942;SHT31;54731;42.600;23.476;2023-04-15T14:43:05;20.70;28.30
67942;SHT31;54731;42.600;23.476;2023-04-15T14:45:31;20.74;27.85
67942;SHT31;54731;42.600;23.476;2023-04-15T14:47:56;21.08;29.66
67942;SHT31;54731;42.600;23.476;2023-04-15T14:50:21;21.08;29.24
67942;SHT31;54731;42.600;23.476;2023-04-15T14:52:47;21.30;29.35
67942;SHT31;54731;42.600;23.476;2023-04-15T14:55:12;20.72;29.82
67942;SHT31;54731;42.600;23.476;2023-04-15T14:57:39;20.84;30.83
67942;SHT31;54731;42.600;23.476;2023-04-15T15:00:05;20.72;29.97
67942;SHT31;54731;42.600;23.476;2023-04-15T15:02:32;20.29;30.81
67942;SHT31;54731;42.600;23.476;2023-04-15T15:04:57;20.36;29.58
67942;SHT31;54731;42.600;23.476;2023-04-15T15:07:23;20.47;30.66
67942;SHT31;54731;42.600;23.476;2023-04-15T15:09:48;20.59;31.41
67942;SHT31;54731;42.600;23.476;2023-04-15T15:12:13;20.57;30.51
67942;SHT31;54731;42.600;23.476;2023-04-15T15:14:39;20.39;30.31
67942;SHT31;54731;42.600;23.476;2023-04-15T15:17:04;20.08;30.60
67942;SHT31;54731;42.600;23.476;2023-04-15T15:19:29;20.23;33.66
67942;SHT31;54731;42.600;23.476;2023-04-15T15:21:55;20.36;32.03
67942;SHT31;54731;42.600;23.476;2023-04-15T15:24:20;20.26;31.45
67942;SHT31;54731;42.600;23.476;2023-04-15T15:26:45;20.16;31.47
67942;SHT31;54731;42.600;23.476;2023-04-15T15:29:11;19.99;30.91
67942;SHT31;54731;42.600;23.476;2023-04-15T15:31:36;20.04;30.39
67942;SHT31;54731;42.600;23.476;2023-04-15T15:34:02;19.85;30.21
67942;SHT31;54731;42.600;23.476;2023-04-15T15:36:29;19.86;31.21
67942;SHT31;54731;42.600;23.476;2023-04-15T15:38:54;19.71;33.07
67942;SHT31;54731;42.600;23.476;2023-04-15T15:41:20;19.62;33.79
67942;SHT31;54731;42.600;23.476;2023-04-15T15:43:45;19.57;33.46
67942;SHT31;54731;42.600;23.476;2023-04-15T15:46:10;19.31;33.13
67942;SHT31;54731;42.600;23.476;2023-04-15T15:48:36;19.11;34.14
67942;SHT31;54731;42.600;23.476;2023-04-15T15:51:01;18.89;35.44
67942;SHT31;54731;42.600;23.476;2023-04-15T15:53:26;18.79;36.25
67942;SHT31;54731;42.600;23.476;2023-04-15T15:55:52;18.67;36.17
67942;SHT31;54731;42.600;23.476;2023-04-15T15:58:17;18.57;36.56
67942;SHT31;54731;42.600;23.476;2023-04-15T16:00:42;18.31;36.68